createdAt,value
2023-03-17T00:01:54.556Z,13.70
2023-03-17T00:04:24.516Z,13.80
2023-03-17T00:06:53.268Z,13.65
2023-03-17T00:09:22.294Z,15.23
2023-03-17T00:11:50.320Z,16.20
2023-03-17T00:14:19.736Z,15.30
2023-03-17T00:16:52.817Z,15.10
2023-03-17T00:19:35.321Z,15.23
2023-03-17T00:22:06.185Z,15.57
2023-03-17T00:24:34.552Z,14.73
2023-03-17T00:27:02.715Z,14.45
2023-03-17T00:29:31.552Z,15.95
2023-03-17T00:31:59.934Z,15.45
2023-03-17T00:36:57.423Z,16.33
2023-03-17T00:39:25.568Z,16.27
2023-03-17T00:41:55.250Z,16.10
2023-03-17T00:44:22.732Z,17.38
2023-03-17T00:46:54.266Z,17.25
2023-03-17T00:49:24.112Z,16.08
2023-03-17T00:51:52.791Z,17.17
2023-03-17T00:54:23.019Z,16.10
2023-03-17T00:56:52.738Z,15.85
2023-03-17T00:59:42.840Z,15.93
2023-03-17T01:02:13.264Z,14.65
2023-03-17T01:07:15.945Z,15.63
2023-03-17T01:09:45.232Z,15.38
2023-03-17T01:12:14.218Z,15.27
2023-03-17T01:14:43.730Z,16.25
2023-03-17T01:17:18.404Z,15.73
2023-03-17T01:19:47.977Z,16.08
2023-03-17T01:22:15.692Z,15.75
2023-03-17T01:24:43.324Z,16.10
2023-03-17T01:27:11.603Z,15.65
2023-03-17T01:29:39.490Z,15.65
2023-03-17T01:32:07.340Z,15.38
2023-03-17T01:34:35.222Z,14.82
2023-03-17T01:37:02.869Z,15.50
2023-03-17T01:39:30.631Z,16.17
2023-03-17T01:42:18.830Z,15.98
2023-03-17T01:45:37.325Z,14.85
2023-03-17T01:48:05.031Z,14.88
2023-03-17T01:50:34.932Z,13.45
2023-03-17T01:53:03.510Z,14.95
2023-03-17T01:55:31.637Z,15.60
2023-03-17T01:57:59.855Z,15.82
2023-03-17T02:00:27.704Z,15.68
2023-03-17T02:02:57.189Z,15.77
2023-03-17T02:05:27.682Z,16.75
2023-03-17T02:07:56.260Z,14.50
2023-03-17T02:10:33.642Z,15.07
2023-03-17T02:13:05.581Z,16.05
2023-03-17T02:15:40.438Z,16.20
2023-03-17T02:18:09.807Z,15.52
2023-03-17T02:20:37.605Z,16.52
2023-03-17T02:23:07.558Z,15.75
2023-03-17T02:25:36.934Z,17.08
2023-03-17T02:28:10.969Z,16.95
2023-03-17T02:30:40.596Z,16.67
2023-03-17T02:33:12.406Z,17.60
2023-03-17T02:35:42.400Z,17.40
2023-03-17T02:38:10.908Z,17.73
2023-03-17T02:40:38.475Z,16.98
2023-03-17T02:43:07.324Z,18.00
2023-03-17T02:45:34.913Z,17.77
2023-03-17T02:48:07.299Z,18.30
2023-03-17T02:50:34.916Z,18.15
2023-03-17T02:53:02.411Z,18.20
2023-03-17T02:55:30.294Z,16.90
2023-03-17T02:57:58.280Z,16.88
2023-03-17T03:00:26.578Z,17.40
2023-03-17T03:02:54.870Z,17.30
2023-03-17T03:05:24.088Z,17.67
2023-03-17T03:07:53.456Z,17.13
2023-03-17T03:10:21.508Z,18.55
2023-03-17T03:12:53.352Z,16.73
2023-03-17T03:15:21.599Z,17.98
2023-03-17T03:17:50.604Z,18.30
2023-03-17T03:20:21.438Z,18.08
2023-03-17T03:22:49.268Z,18.13
2023-03-17T03:25:17.217Z,17.45
2023-03-17T03:27:46.791Z,18.05
2023-03-17T03:30:14.669Z,18.02
2023-03-17T03:32:44.066Z,18.75
2023-03-17T03:35:11.732Z,18.65
2023-03-17T03:37:39.585Z,20.92
2023-03-17T03:40:07.709Z,20.52
2023-03-17T03:42:35.552Z,20.48
2023-03-17T03:45:03.203Z,20.30
2023-03-17T03:47:31.203Z,19.63
2023-03-17T03:50:00.176Z,19.60
2023-03-17T03:52:27.829Z,20.60
2023-03-17T03:54:55.768Z,21.25
2023-03-17T03:57:23.210Z,19.95
2023-03-17T03:59:51.131Z,19.25
2023-03-17T04:02:18.720Z,18.88
2023-03-17T04:04:47.038Z,20.02
2023-03-17T04:07:14.817Z,18.77
2023-03-17T04:09:42.618Z,19.67
2023-03-17T04:12:10.540Z,18.80
2023-03-17T04:14:38.260Z,18.55
2023-03-17T04:17:06.260Z,18.85
2023-03-17T04:19:33.953Z,18.50
2023-03-17T04:22:05.410Z,19.25
2023-03-17T04:24:34.778Z,20.90
2023-03-17T04:27:04.878Z,19.42
2023-03-17T04:29:36.481Z,19.58
2023-03-17T04:32:04.863Z,19.73
2023-03-17T04:34:34.967Z,20.35
2023-03-17T04:37:02.591Z,18.67
2023-03-17T04:39:33.791Z,21.00
2023-03-17T04:42:01.562Z,22.67
2023-03-17T04:44:29.652Z,22.02
2023-03-17T04:46:59.452Z,22.63
2023-03-17T04:49:28.173Z,22.20
2023-03-17T04:51:55.856Z,21.90
2023-03-17T04:54:24.767Z,23.50
2023-03-17T04:56:52.660Z,21.77
2023-03-17T04:59:20.341Z,21.63
2023-03-17T05:01:48.035Z,22.83
2023-03-17T05:04:28.862Z,21.15
2023-03-17T05:06:58.610Z,21.30
2023-03-17T05:09:28.726Z,21.48
2023-03-17T05:11:58.940Z,22.70
2023-03-17T05:14:26.794Z,21.95
2023-03-17T05:16:54.405Z,22.83
2023-03-17T05:19:23.560Z,24.13
2023-03-17T05:21:51.641Z,23.25
2023-03-17T05:24:19.207Z,22.80
2023-03-17T05:26:47.207Z,22.17
2023-03-17T05:29:14.771Z,23.73
2023-03-17T05:31:44.984Z,24.15
2023-03-17T05:34:12.654Z,23.17
2023-03-17T05:36:40.271Z,23.92
2023-03-17T05:39:07.821Z,23.83
2023-03-17T05:41:36.315Z,25.13
2023-03-17T05:44:05.917Z,24.58
2023-03-17T05:46:37.927Z,24.15
2023-03-17T05:49:07.706Z,22.75
2023-03-17T05:51:37.057Z,22.77
2023-03-17T05:54:05.155Z,21.33
2023-03-17T05:56:34.989Z,21.63
2023-03-17T05:59:04.714Z,22.88
2023-03-17T06:01:32.483Z,22.23
2023-03-17T06:04:01.829Z,21.58
2023-03-17T06:08:57.110Z,22.02
2023-03-17T06:11:24.591Z,21.65
2023-03-17T06:13:58.173Z,21.45
2023-03-17T06:16:25.875Z,20.75
2023-03-17T06:18:53.376Z,19.85
2023-03-17T06:21:21.402Z,19.48
2023-03-17T06:23:49.024Z,19.65
2023-03-17T06:26:16.843Z,19.60
2023-03-17T06:28:44.451Z,19.48
2023-03-17T06:31:12.112Z,20.08
2023-03-17T06:33:39.781Z,19.83
2023-03-17T06:36:08.263Z,19.83
2023-03-17T06:38:36.171Z,20.33
2023-03-17T06:41:04.889Z,20.33
2023-03-17T06:43:32.707Z,19.48
2023-03-17T06:46:04.476Z,19.77
2023-03-17T06:48:32.202Z,19.88
2023-03-17T06:51:00.852Z,19.15
2023-03-17T06:53:28.452Z,19.63
2023-03-17T06:55:56.445Z,19.58
2023-03-17T06:58:24.988Z,19.67
2023-03-17T07:00:54.219Z,19.55
2023-03-17T07:03:22.543Z,20.45
2023-03-17T07:05:50.141Z,20.60
2023-03-17T07:08:18.079Z,20.35
2023-03-17T07:10:45.993Z,21.10
2023-03-17T07:13:17.957Z,21.13
2023-03-17T07:15:45.744Z,20.17
2023-03-17T07:18:13.618Z,19.52
2023-03-17T07:20:41.617Z,21.00
2023-03-17T07:23:29.231Z,22.48
2023-03-17T07:25:59.935Z,22.50
2023-03-17T07:28:27.552Z,21.75
2023-03-17T07:30:57.893Z,21.65
2023-03-17T07:33:25.896Z,21.98
2023-03-17T07:35:56.558Z,22.77
2023-03-17T07:38:24.172Z,23.27
2023-03-17T07:40:53.166Z,23.05
2023-03-17T07:43:22.633Z,24.13
2023-03-17T07:45:50.199Z,23.30
2023-03-17T07:48:19.171Z,20.98
2023-03-17T07:50:47.962Z,20.88
2023-03-17T07:53:15.599Z,21.95
2023-03-17T07:55:44.715Z,22.73
2023-03-17T07:58:15.180Z,22.17
2023-03-17T08:00:48.700Z,21.00
2023-03-17T08:03:16.985Z,23.02
2023-03-17T08:05:45.630Z,21.95
2023-03-17T08:08:22.205Z,21.52
2023-03-17T08:10:50.887Z,22.65
2023-03-17T08:13:18.901Z,21.33
2023-03-17T08:15:47.214Z,22.17
2023-03-17T08:18:14.943Z,21.92
2023-03-17T08:20:42.539Z,20.00
2023-03-17T08:23:10.704Z,20.52
2023-03-17T08:25:39.582Z,19.55
2023-03-17T08:28:08.047Z,19.08
2023-03-17T08:33:06.459Z,18.85
2023-03-17T08:35:37.402Z,18.38
2023-03-17T08:38:05.146Z,19.00
2023-03-17T08:40:32.728Z,19.83
2023-03-17T08:43:00.534Z,18.95
2023-03-17T08:45:29.007Z,17.65
2023-03-17T08:47:58.524Z,17.63
2023-03-17T08:50:27.087Z,17.70
2023-03-17T08:52:55.169Z,16.58
2023-03-17T08:55:22.898Z,17.63
2023-03-17T08:57:50.528Z,17.33
2023-03-17T09:00:23.352Z,16.88
2023-03-17T09:02:51.246Z,16.40
2023-03-17T09:05:19.610Z,17.90
2023-03-17T09:07:50.106Z,17.45
2023-03-17T09:10:22.658Z,16.77
2023-03-17T09:12:51.838Z,15.93
2023-03-17T09:15:22.418Z,16.02
2023-03-17T09:17:50.115Z,15.25
2023-03-17T09:20:17.768Z,16.55
2023-03-17T09:22:47.800Z,15.55
2023-03-17T09:25:16.727Z,15.75
2023-03-17T09:27:48.249Z,16.08
2023-03-17T09:30:19.452Z,16.00
2023-03-17T09:32:47.137Z,16.63
2023-03-17T09:35:15.297Z,16.15
2023-03-17T09:37:42.795Z,15.77
2023-03-17T09:40:17.231Z,14.60
2023-03-17T09:42:56.743Z,15.95
2023-03-17T09:45:33.648Z,14.75
2023-03-17T09:48:39.088Z,14.77
2023-03-17T09:51:13.170Z,15.15
2023-03-17T09:53:49.481Z,14.40
2023-03-17T09:56:20.042Z,15.68
2023-03-17T09:58:52.948Z,15.57
2023-03-17T10:01:22.887Z,15.20
2023-03-17T10:03:51.694Z,16.20
2023-03-17T10:06:42.765Z,15.97
2023-03-17T10:09:33.811Z,15.75
2023-03-17T10:12:15.359Z,14.50
2023-03-17T10:15:00.716Z,15.43
2023-03-17T10:17:34.503Z,15.90
2023-03-17T10:20:11.978Z,13.98
2023-03-17T10:22:54.821Z,14.05
2023-03-17T10:25:26.399Z,14.57
2023-03-17T10:28:01.996Z,14.48
2023-03-17T10:30:33.822Z,12.93
2023-03-17T10:33:05.002Z,14.13
2023-03-17T10:35:36.469Z,13.55
2023-03-17T10:38:23.379Z,13.23
2023-03-17T10:41:03.568Z,14.18
2023-03-17T10:43:46.026Z,13.77
2023-03-17T10:46:25.233Z,14.02
2023-03-17T10:49:02.245Z,14.07
2023-03-17T10:51:37.405Z,15.40
2023-03-17T10:54:19.974Z,13.95
2023-03-17T10:56:50.392Z,13.30
2023-03-17T11:04:39.967Z,15.63
2023-03-17T11:07:40.916Z,15.38
2023-03-17T11:10:26.871Z,15.80
2023-03-17T11:13:00.436Z,16.88
2023-03-17T11:15:38.014Z,15.65
2023-03-17T11:18:33.285Z,16.30
2023-03-17T11:21:10.330Z,15.93
2023-03-17T11:23:47.204Z,15.77
2023-03-17T11:26:39.342Z,14.80
2023-03-17T11:29:32.654Z,15.48
2023-03-17T11:32:39.008Z,15.52
2023-03-17T11:35:15.400Z,13.35
2023-03-17T11:38:12.435Z,14.73
2023-03-17T11:41:24.441Z,13.38
2023-03-17T11:44:21.316Z,13.07
2023-03-17T11:47:15.124Z,12.10
2023-03-17T11:49:46.056Z,13.13
2023-03-17T11:52:14.746Z,12.48
2023-03-17T11:54:59.679Z,13.02
2023-03-17T11:57:27.580Z,13.10
2023-03-17T12:00:07.784Z,12.40
2023-03-17T12:02:47.702Z,12.63
2023-03-17T12:05:30.120Z,11.90
2023-03-17T12:08:25.073Z,12.93
2023-03-17T12:10:56.655Z,12.45
2023-03-17T12:13:43.016Z,12.43
2023-03-17T12:16:32.114Z,12.52
2023-03-17T12:19:37.807Z,13.00
2023-03-17T12:22:36.589Z,12.68
2023-03-17T12:25:20.880Z,13.95
2023-03-17T12:28:00.819Z,13.10
2023-03-17T12:30:37.319Z,13.30
2023-03-17T12:33:17.121Z,12.18
2023-03-17T12:35:45.589Z,14.10
2023-03-17T12:38:40.920Z,13.13
2023-03-17T12:41:31.567Z,13.68
2023-03-17T12:44:03.171Z,13.90
2023-03-17T12:46:50.254Z,13.45
2023-03-17T12:49:37.371Z,12.80
2023-03-17T12:52:43.948Z,13.70
2023-03-17T12:55:17.283Z,13.60
2023-03-17T12:57:48.453Z,15.23
2023-03-17T13:00:25.506Z,15.95
2023-03-17T13:03:22.313Z,14.85
2023-03-17T13:05:55.225Z,15.68
2023-03-17T13:08:33.747Z,16.35
2023-03-17T13:11:29.688Z,16.90
2023-03-17T13:14:13.280Z,17.50
2023-03-17T13:16:46.922Z,17.73
2023-03-17T13:19:20.337Z,17.17
2023-03-17T13:21:51.076Z,15.90
2023-03-17T13:24:22.674Z,14.93
2023-03-17T13:26:55.061Z,15.68
2023-03-17T13:29:32.791Z,14.77
2023-03-17T13:32:21.900Z,15.25
2023-03-17T13:34:55.729Z,16.63
2023-03-17T13:37:31.265Z,15.95
2023-03-17T13:40:35.367Z,17.38
2023-03-17T13:43:21.378Z,17.33
2023-03-17T13:45:49.781Z,17.77
2023-03-17T13:48:33.726Z,17.48
2023-03-17T13:51:18.720Z,16.20
2023-03-17T13:53:56.997Z,17.90
2023-03-17T13:56:47.984Z,16.80
2023-03-17T13:59:33.089Z,17.05
2023-03-17T14:02:12.385Z,16.60
2023-03-17T14:04:52.712Z,15.52
2023-03-17T14:07:24.680Z,14.60
2023-03-17T14:09:59.029Z,14.98
2023-03-17T14:12:46.882Z,13.98
2023-03-17T14:15:28.201Z,13.60
2023-03-17T14:18:03.198Z,15.32
2023-03-17T14:20:31.221Z,13.48
2023-03-17T14:23:01.820Z,13.15
2023-03-17T14:25:38.564Z,13.00
2023-03-17T14:28:11.192Z,13.13
2023-03-17T14:30:39.414Z,13.65
2023-03-17T14:33:26.630Z,12.43
2023-03-17T14:36:00.837Z,12.50
2023-03-17T14:38:37.362Z,13.70
2023-03-17T14:41:06.088Z,13.60
2023-03-17T14:43:35.481Z,12.02
2023-03-17T14:46:05.827Z,10.57
2023-03-17T14:48:36.966Z,12.05
2023-03-17T14:51:24.749Z,11.70
2023-03-17T14:53:54.326Z,11.30
2023-03-17T14:56:42.564Z,11.25
2023-03-17T14:59:25.449Z,10.57
2023-03-17T15:01:58.258Z,10.30
2023-03-17T15:04:29.828Z,9.65
2023-03-17T15:07:02.832Z,8.77
2023-03-17T15:09:33.807Z,9.35
2023-03-17T15:12:17.992Z,8.95
2023-03-17T15:14:47.070Z,8.95
2023-03-17T15:17:19.147Z,8.80
2023-03-17T15:20:00.106Z,9.18
2023-03-17T15:22:42.071Z,7.95
2023-03-17T15:25:31.504Z,7.28
2023-03-17T15:27:59.271Z,7.28
2023-03-17T15:30:37.457Z,7.27
2023-03-17T15:33:30.611Z,7.15
2023-03-17T15:36:00.342Z,6.50
2023-03-17T15:38:29.710Z,5.82
2023-03-17T15:40:58.062Z,7.00
2023-03-17T15:43:27.595Z,6.55
2023-03-17T15:45:59.932Z,7.13
2023-03-17T15:48:31.978Z,7.13
2023-03-17T15:51:01.528Z,7.18
2023-03-17T15:53:32.228Z,7.57
2023-03-17T15:56:00.468Z,7.47
2023-03-17T15:58:28.465Z,7.70
2023-03-17T16:01:00.010Z,7.90
2023-03-17T16:03:37.146Z,8.55
2023-03-17T16:06:13.795Z,8.05
2023-03-17T16:08:42.355Z,8.40
2023-03-17T16:11:28.373Z,7.90
2023-03-17T16:14:02.236Z,8.95
2023-03-17T16:16:36.550Z,9.40
2023-03-17T16:19:05.918Z,9.00
2023-03-17T16:21:36.244Z,8.52
2023-03-17T16:24:03.861Z,9.18
2023-03-17T16:26:31.689Z,9.63
2023-03-17T16:29:01.998Z,9.73
2023-03-17T16:31:30.754Z,11.75
2023-03-17T16:33:58.349Z,11.98
2023-03-17T16:36:26.316Z,12.63
2023-03-17T16:38:54.039Z,11.48
2023-03-17T16:41:24.310Z,12.00
2023-03-17T16:44:01.307Z,11.60
2023-03-17T16:46:35.154Z,12.30
2023-03-17T16:49:07.206Z,13.30
2023-03-17T16:51:34.749Z,14.05
2023-03-17T16:54:03.223Z,13.43
2023-03-17T16:56:31.683Z,13.85
2023-03-17T16:58:59.881Z,13.40
2023-03-17T17:01:29.243Z,13.68
2023-03-17T17:03:57.254Z,13.13
2023-03-17T17:06:26.959Z,13.48
2023-03-17T17:08:54.521Z,13.98
2023-03-17T17:11:22.131Z,12.75
2023-03-17T17:13:51.817Z,12.82
2023-03-17T17:16:19.479Z,14.45
2023-03-17T17:18:47.447Z,12.80
2023-03-17T17:21:15.220Z,14.27
2023-03-17T17:23:42.957Z,14.27
2023-03-17T17:26:12.877Z,14.20
2023-03-17T17:28:40.496Z,14.30
2023-03-17T17:31:08.955Z,14.32
2023-03-17T17:33:37.336Z,14.88
2023-03-17T17:36:07.612Z,14.82
2023-03-17T17:38:35.150Z,14.93
2023-03-17T17:41:05.610Z,14.23
2023-03-17T17:43:33.849Z,15.85
2023-03-17T17:46:02.597Z,14.27
2023-03-17T17:48:32.155Z,14.07
2023-03-17T17:50:59.725Z,15.52
2023-03-17T17:53:28.103Z,15.25
2023-03-17T17:55:56.263Z,13.82
2023-03-17T17:58:26.602Z,16.08
2023-03-17T18:00:57.246Z,15.32
2023-03-17T18:03:26.694Z,14.90
2023-03-17T18:05:56.476Z,16.45
2023-03-17T18:08:25.684Z,15.48
2023-03-17T18:10:59.991Z,15.18
2023-03-17T18:13:28.439Z,16.10
2023-03-17T18:15:56.408Z,15.98
2023-03-17T18:18:25.402Z,15.25
2023-03-17T18:20:54.339Z,17.98
2023-03-17T18:23:23.127Z,16.63
2023-03-17T18:25:52.082Z,17.20
2023-03-17T18:28:19.882Z,17.90
2023-03-17T18:30:47.845Z,16.10
2023-03-17T18:33:19.757Z,18.50
2023-03-17T18:35:49.727Z,19.38
2023-03-17T18:38:18.002Z,17.63
2023-03-17T18:40:45.860Z,18.88
2023-03-17T18:43:13.794Z,19.67
2023-03-17T18:45:42.637Z,19.52
2023-03-17T18:48:10.364Z,17.70
2023-03-17T18:50:38.790Z,18.80
2023-03-17T18:53:07.309Z,18.80
2023-03-17T18:55:41.237Z,20.17
2023-03-17T18:58:08.759Z,19.83
2023-03-17T19:00:36.495Z,18.63
2023-03-17T19:03:04.194Z,20.92
2023-03-17T19:05:37.584Z,19.38
2023-03-17T19:08:07.696Z,20.50
2023-03-17T19:10:37.074Z,19.92
2023-03-17T19:13:05.209Z,19.67
2023-03-17T19:15:36.792Z,21.17
2023-03-17T19:18:05.665Z,20.93
2023-03-17T19:20:34.568Z,19.83
2023-03-17T19:23:04.528Z,19.90
2023-03-17T19:25:32.533Z,19.98
2023-03-17T19:28:00.188Z,20.15
2023-03-17T19:30:29.423Z,20.25
2023-03-17T19:32:57.653Z,18.48
2023-03-17T19:35:25.936Z,20.27
2023-03-17T19:37:53.444Z,19.80
2023-03-17T19:40:22.426Z,20.05
2023-03-17T19:42:51.498Z,18.52
2023-03-17T19:45:19.510Z,20.48
2023-03-17T19:47:50.405Z,19.92
2023-03-17T19:50:17.928Z,19.77
2023-03-17T19:52:46.292Z,18.83
2023-03-17T19:55:13.848Z,18.48
2023-03-17T19:57:42.038Z,19.13
2023-03-17T20:00:11.097Z,16.95
2023-03-17T20:02:39.733Z,18.73
2023-03-17T20:05:08.542Z,17.02
2023-03-17T20:07:37.309Z,16.95
2023-03-17T20:10:07.111Z,16.10
2023-03-17T20:12:39.593Z,16.52
2023-03-17T20:15:09.118Z,18.38
2023-03-17T20:17:36.910Z,16.75
2023-03-17T20:20:12.314Z,15.88
2023-03-17T20:22:43.803Z,16.27
2023-03-17T20:25:12.415Z,16.27
2023-03-17T20:27:42.539Z,15.65
2023-03-17T20:30:12.411Z,15.80
2023-03-17T20:32:40.115Z,15.80
2023-03-17T20:35:08.773Z,21.98
2023-03-17T20:37:37.346Z,24.02
2023-03-17T20:40:13.850Z,21.58
2023-03-17T20:42:42.970Z,22.63
2023-03-17T20:45:10.563Z,21.33
2023-03-17T20:47:38.142Z,18.77
2023-03-17T20:50:08.670Z,18.90
2023-03-17T20:52:37.293Z,20.55
2023-03-17T20:55:06.220Z,19.17
2023-03-17T20:57:36.448Z,19.77
2023-03-17T21:00:04.872Z,18.17
2023-03-17T21:05:01.845Z,18.73
2023-03-17T21:07:30.511Z,17.60
2023-03-17T21:09:59.615Z,20.23
2023-03-17T21:12:32.906Z,18.92
2023-03-17T21:15:00.849Z,20.05
2023-03-17T21:17:28.782Z,20.75
2023-03-17T21:19:57.057Z,22.30
2023-03-17T21:22:24.772Z,21.08
2023-03-17T21:24:53.216Z,21.98
2023-03-17T21:27:21.528Z,21.63
2023-03-17T21:29:49.318Z,22.65
2023-03-17T21:32:16.870Z,21.45
2023-03-17T21:34:45.130Z,21.42
2023-03-17T21:37:13.013Z,21.58
2023-03-17T21:39:41.208Z,21.38
2023-03-17T21:42:09.781Z,23.75
2023-03-17T21:44:38.479Z,22.90
2023-03-17T21:47:06.109Z,22.50
2023-03-17T21:49:33.670Z,24.10
2023-03-17T21:52:01.853Z,22.20
2023-03-17T21:54:30.506Z,21.10
2023-03-17T21:57:05.626Z,19.88
2023-03-17T21:59:35.777Z,20.30
2023-03-17T22:02:03.712Z,18.30
2023-03-17T22:04:32.490Z,16.15
2023-03-17T22:07:00.126Z,16.30
2023-03-17T22:09:29.338Z,19.05
2023-03-17T22:11:57.655Z,16.08
2023-03-17T22:14:25.672Z,15.93
2023-03-17T22:16:53.445Z,20.17
2023-03-17T22:19:21.557Z,18.83
2023-03-17T22:21:49.863Z,20.20
2023-03-17T22:24:18.183Z,18.85
2023-03-17T22:26:46.630Z,17.85
2023-03-17T22:29:15.148Z,18.48
2023-03-17T22:31:42.872Z,19.67
2023-03-17T22:34:10.393Z,17.55
2023-03-17T22:36:39.096Z,16.15
2023-03-17T22:39:10.564Z,15.55
2023-03-17T22:41:39.204Z,17.67
2023-03-17T22:44:09.155Z,16.77
2023-03-17T22:46:38.581Z,15.48
2023-03-17T22:49:07.967Z,16.15
2023-03-17T22:51:36.636Z,18.27
2023-03-17T22:54:12.317Z,18.95
2023-03-17T22:56:41.089Z,20.92
2023-03-17T22:59:08.868Z,19.20
2023-03-17T23:01:36.795Z,20.20
2023-03-17T23:04:04.343Z,21.52
2023-03-17T23:06:32.708Z,20.10
2023-03-17T23:09:00.268Z,17.63
2023-03-17T23:11:28.157Z,21.63
2023-03-17T23:14:00.825Z,18.77
2023-03-17T23:16:28.657Z,16.13
2023-03-17T23:18:58.274Z,13.45
2023-03-17T23:21:36.809Z,15.93
2023-03-17T23:24:07.742Z,17.00
2023-03-17T23:26:37.141Z,15.98
2023-03-17T23:29:07.018Z,15.98
2023-03-17T23:31:38.405Z,19.45
2023-03-17T23:34:07.500Z,16.15
2023-03-17T23:36:40.056Z,14.82
2023-03-17T23:39:08.661Z,13.38
2023-03-17T23:41:37.790Z,14.07
2023-03-17T23:44:06.620Z,13.50
2023-03-17T23:46:34.537Z,13.30
2023-03-17T23:49:02.854Z,14.48
2023-03-17T23:51:30.452Z,15.02
2023-03-17T23:53:59.169Z,13.57
2023-03-17T23:56:29.197Z,13.82
2023-03-17T23:58:56.965Z,13.80
